Time;durP1;ratioP1;P1;durP2;ratioP2;P2;SDS_P1;SDS_P2;PMS_P1;PMS_P2;Temp;Humidity;BMP_temperature;BMP_pressure;BME280_temperature;BME280_humidity;BME280_pressure;Samples;Min_cycle;Max_cycle;Signal;HPM_P1;HPM_P2
2022/10/22 00:02:19;;;;;;;35.00;25.90;;;11.70;99.90;;;;;;5089401;28;20544;-45
2022/10/22 00:04:46;;;;;;;36.23;27.00;;;11.80;99.90;;;;;;5090240;28;20246;-45
2022/10/22 00:07:12;;;;;;;39.27;28.87;;;11.80;99.90;;;;;;5089006;28;20519;-47
2022/10/22 00:09:38;;;;;;;33.70;25.03;;;11.80;99.90;;;;;;5090035;28;20430;-46
2022/10/22 00:12:03;;;;;;;37.40;27.93;;;11.80;99.90;;;;;;5089515;28;20457;-48
2022/10/22 00:14:29;;;;;;;33.53;25.50;;;11.80;99.90;;;;;;5086791;28;20192;-43
2022/10/22 00:16:55;;;;;;;34.77;26.50;;;11.90;99.90;;;;;;5088519;28;20470;-45
2022/10/22 00:19:20;;;;;;;36.63;26.90;;;11.90;99.90;;;;;;5088833;28;20184;-47
2022/10/22 00:21:46;;;;;;;37.10;26.90;;;12.00;99.90;;;;;;5089723;28;20785;-42
2022/10/22 00:24:12;;;;;;;33.43;25.90;;;12.00;99.90;;;;;;5089220;28;20192;-43
2022/10/22 00:26:39;;;;;;;34.47;26.17;;;12.00;99.90;;;;;;5089608;28;20189;-46
2022/10/22 00:29:05;;;;;;;38.23;26.93;;;12.00;99.90;;;;;;5089198;28;20234;-43
2022/10/22 00:31:30;;;;;;;38.07;26.50;;;12.00;99.90;;;;;;5088894;28;20426;-43
2022/10/22 00:33:56;;;;;;;33.27;25.67;;;12.10;99.90;;;;;;5089575;28;20219;-44
2022/10/22 00:36:21;;;;;;;34.43;26.93;;;12.10;99.90;;;;;;5089246;28;20193;-43
2022/10/22 00:38:47;;;;;;;32.43;25.57;;;12.10;99.90;;;;;;5088807;28;20532;-48
2022/10/22 00:41:13;;;;;;;36.20;26.20;;;12.20;99.90;;;;;;5088534;28;20729;-42
2022/10/22 00:43:55;;;;;;;36.90;26.53;;;12.10;99.90;;;;;;5087669;28;20189;-45
2022/10/22 00:46:21;;;;;;;33.67;24.60;;;12.10;99.90;;;;;;5087639;28;20895;-44
2022/10/22 00:48:46;;;;;;;34.07;25.90;;;12.20;99.90;;;;;;5089168;28;20456;-43
2022/10/22 00:51:12;;;;;;;33.33;25.57;;;12.10;99.90;;;;;;5069203;28;20540;-49
2022/10/22 00:53:48;;;;;;;34.73;25.60;;;12.20;99.90;;;;;;5089327;28;20301;-43
2022/10/22 00:56:14;;;;;;;35.10;26.03;;;12.00;99.90;;;;;;5088403;28;20768;-45
2022/10/22 00:59:01;;;;;;;35.30;26.23;;;12.00;99.90;;;;;;5089190;28;20426;-43
2022/10/22 01:01:30;;;;;;;39.40;27.27;;;11.90;99.90;;;;;;5088203;28;20220;-43
2022/10/22 01:03:55;;;;;;;37.60;28.07;;;11.90;99.90;;;;;;5088940;28;20426;-47
2022/10/22 01:06:28;;;;;;;38.00;27.20;;;11.90;99.90;;;;;;5087912;28;20470;-48
2022/10/22 01:09:08;;;;;;;38.57;28.00;;;11.90;99.90;;;;;;5069654;28;20220;-47
2022/10/22 01:11:43;;;;;;;40.00;28.70;;;11.80;99.90;;;;;;5088373;28;20435;-44
2022/10/22 01:14:28;;;;;;;38.23;28.60;;;11.80;99.90;;;;;;5082526;28;20434;-48
2022/10/22 01:17:04;;;;;;;38.50;27.90;;;11.80;99.90;;;;;;5088348;28;20467;-45
2022/10/22 01:19:48;;;;;;;40.80;28.63;;;11.70;99.90;;;;;;5088403;28;20446;-45
2022/10/22 01:22:27;;;;;;;43.17;28.70;;;11.70;99.90;;;;;;5088572;28;20437;-46
2022/10/22 01:25:03;;;;;;;39.23;28.47;;;11.80;99.90;;;;;;5088827;28;20917;-46
2022/10/22 01:27:52;;;;;;;40.60;28.70;;;11.90;99.90;;;;;;5086124;28;20426;-48
2022/10/22 01:30:18;;;;;;;39.97;28.70;;;11.90;99.90;;;;;;5082451;28;20908;-45
2022/10/22 01:32:50;;;;;;;40.60;28.73;;;11.80;99.90;;;;;;5087404;28;20437;-44
2022/10/22 01:35:20;;;;;;;39.60;28.40;;;11.80;99.90;;;;;;5088601;28;20777;-44
2022/10/22 01:37:53;;;;;;;43.37;28.47;;;11.80;99.90;;;;;;5087045;28;20817;-45
2022/10/22 01:40:20;;;;;;;41.07;30.40;;;11.80;99.90;;;;;;5087337;28;20785;-43
2022/10/22 01:42:56;;;;;;;41.80;28.87;;;11.90;99.90;;;;;;5087793;28;20446;-46
2022/10/22 01:45:22;;;;;;;39.77;28.93;;;11.90;99.90;;;;;;5087353;28;20525;-45
2022/10/22 01:48:11;;;;;;;38.00;28.97;;;12.00;99.90;;;;;;5087662;28;20561;-45
2022/10/22 01:50:45;;;;;;;36.90;28.13;;;11.90;99.90;;;;;;5088418;28;20197;-45
2022/10/22 01:53:39;;;;;;;37.50;26.60;;;11.90;99.90;;;;;;5086849;28;20450;-45
2022/10/22 01:56:14;;;;;;;36.40;27.03;;;12.00;99.90;;;;;;5088321;28;20465;-48
2022/10/22 01:59:16;;;;;;;36.83;27.60;;;12.00;99.90;;;;;;5087593;28;20445;-44
2022/10/22 02:01:57;;;;;;;35.57;24.83;;;12.10;99.90;;;;;;5087409;28;20534;-44
2022/10/22 02:04:32;;;;;;;32.17;25.20;;;12.10;99.90;;;;;;5087675;28;20521;-44
2022/10/22 02:07:03;;;;;;;37.23;25.50;;;12.10;99.90;;;;;;5087212;28;20869;-46
2022/10/22 02:09:30;;;;;;;34.97;25.47;;;12.10;99.90;;;;;;5088321;28;20465;-46
2022/10/22 02:11:58;;;;;;;33.73;24.67;;;12.10;99.90;;;;;;5087572;28;20484;-44
2022/10/22 02:14:26;;;;;;;33.80;24.93;;;12.20;99.90;;;;;;5088172;28;20419;-44
2022/10/22 02:16:51;;;;;;;34.43;25.77;;;12.20;99.90;;;;;;5087541;28;20844;-43
2022/10/22 02:19:52;;;;;;;34.00;26.00;;;12.30;99.90;;;;;;5089541;28;20438;-44
2022/10/22 02:22:18;;;;;;;36.73;26.97;;;12.30;99.90;;;;;;5048125;28;20207;-43
2022/10/22 02:24:44;;;;;;;35.70;25.47;;;12.30;99.90;;;;;;5091315;28;20435;-48
2022/10/22 02:27:27;;;;;;;33.47;25.67;;;12.30;99.90;;;;;;5092407;28;20519;-43
2022/10/22 02:30:02;;;;;;;31.97;24.73;;;12.20;99.90;;;;;;5091310;28;20932;-44
2022/10/22 02:32:35;;;;;;;31.20;24.10;;;12.20;99.90;;;;;;5072018;28;20449;-43
2022/10/22 02:35:02;;;;;;;34.50;25.43;;;12.30;99.90;;;;;;5091565;28;20929;-44
2022/10/22 02:37:28;;;;;;;35.57;26.70;;;12.30;99.90;;;;;;5072168;28;20449;-44
2022/10/22 02:39:55;;;;;;;31.03;24.83;;;12.30;99.90;;;;;;5091957;28;20426;-43
2022/10/22 02:42:23;;;;;;;35.57;24.73;;;12.30;99.90;;;;;;5091066;28;20275;-45
2022/10/22 02:44:49;;;;;;;34.97;25.43;;;12.20;99.90;;;;;;5091946;28;20415;-49
2022/10/22 02:47:14;;;;;;;34.73;25.00;;;12.20;99.90;;;;;;5090258;28;20442;-50
2022/10/22 02:49:40;;;;;;;34.50;25.33;;;12.20;99.90;;;;;;5091661;28;20239;-48
2022/10/22 02:52:05;;;;;;;37.73;25.80;;;12.20;99.90;;;;;;5089570;28;20177;-47
2022/10/22 02:54:31;;;;;;;32.60;25.60;;;12.10;99.90;;;;;;5091098;28;20196;-46
2022/10/22 02:56:56;;;;;;;36.80;26.73;;;12.10;99.90;;;;;;5090826;28;20489;-44
2022/10/22 02:59:22;;;;;;;37.43;26.03;;;12.10;99.90;;;;;;5069846;28;20193;-45
2022/10/22 03:01:47;;;;;;;34.80;25.57;;;12.10;99.90;;;;;;5090744;28;20271;-43
2022/10/22 03:04:13;;;;;;;34.50;25.03;;;12.20;99.90;;;;;;5091339;28;20197;-47
2022/10/22 03:06:42;;;;;;;38.13;27.57;;;12.20;99.90;;;;;;5089673;28;20235;-46
2022/10/22 03:09:08;;;;;;;34.10;26.47;;;12.20;99.90;;;;;;5060397;28;20524;-46
2022/10/22 03:11:33;;;;;;;33.60;25.33;;;12.10;99.90;;;;;;5089556;28;20522;-42
2022/10/22 03:13:59;;;;;;;38.20;27.97;;;12.10;99.90;;;;;;5091127;28;20508;-45
2022/10/22 03:16:25;;;;;;;38.80;26.10;;;12.10;99.90;;;;;;5089877;28;20980;-43
2022/10/22 03:18:50;;;;;;;36.77;26.97;;;12.10;99.90;;;;;;5090158;28;20463;-48
2022/10/22 03:21:18;;;;;;;37.90;28.30;;;12.20;99.90;;;;;;5090813;28;20209;-43
2022/10/22 03:23:44;;;;;;;34.53;25.60;;;12.20;99.90;;;;;;5088824;28;20643;-43
2022/10/22 03:26:13;;;;;;;37.30;26.20;;;12.20;99.90;;;;;;5090836;28;20461;-46
2022/10/22 03:28:39;;;;;;;35.40;27.20;;;12.10;99.90;;;;;;5089281;28;20223;-46
2022/10/22 03:31:05;;;;;;;37.50;27.60;;;12.10;99.90;;;;;;5090039;28;20423;-45
2022/10/22 03:33:30;;;;;;;36.90;27.90;;;12.10;99.90;;;;;;5089946;28;20426;-45
2022/10/22 03:35:56;;;;;;;37.67;26.87;;;12.10;99.90;;;;;;5090585;28;20192;-43
2022/10/22 03:38:22;;;;;;;37.40;27.50;;;12.10;99.90;;;;;;5089723;28;20540;-46
2022/10/22 03:40:48;;;;;;;35.90;27.20;;;12.10;99.90;;;;;;5090361;28;20430;-43
2022/10/22 03:43:14;;;;;;;38.13;27.00;;;12.10;99.90;;;;;;5090615;28;20200;-49
2022/10/22 03:45:39;;;;;;;37.73;27.40;;;12.10;99.90;;;;;;5089802;28;20541;-44
2022/10/22 03:48:05;;;;;;;39.30;26.43;;;12.10;99.90;;;;;;5090260;28;20477;-44
2022/10/22 03:50:31;;;;;;;34.63;27.03;;;12.10;99.90;;;;;;5089662;28;20184;-45
2022/10/22 03:52:57;;;;;;;34.97;27.40;;;12.10;99.90;;;;;;5089206;28;20330;-43
2022/10/22 03:55:23;;;;;;;38.13;27.37;;;12.10;99.90;;;;;;5088207;28;20199;-43
2022/10/22 03:57:48;;;;;;;38.97;28.30;;;12.00;99.90;;;;;;5090471;28;20438;-44
2022/10/22 04:00:14;;;;;;;37.63;26.77;;;12.00;99.90;;;;;;5089389;28;20560;-44
2022/10/22 04:02:40;;;;;;;38.80;27.37;;;12.00;99.90;;;;;;5090261;28;20467;-43
2022/10/22 04:05:06;;;;;;;38.80;28.53;;;12.00;99.90;;;;;;5089503;28;20193;-45
2022/10/22 04:07:32;;;;;;;37.03;26.87;;;12.10;99.90;;;;;;5089376;28;20219;-44
2022/10/22 04:09:57;;;;;;;38.70;28.47;;;12.00;99.90;;;;;;5089373;28;20450;-47
2022/10/22 04:12:23;;;;;;;37.40;27.33;;;12.00;99.90;;;;;;5090260;28;20272;-44
2022/10/22 04:14:48;;;;;;;34.73;25.90;;;12.00;99.90;;;;;;5089065;28;20199;-44
2022/10/22 04:17:14;;;;;;;40.77;28.80;;;12.00;99.90;;;;;;5089945;28;20184;-44
2022/10/22 04:19:40;;;;;;;33.07;26.47;;;12.00;99.90;;;;;;5089177;28;20211;-44
2022/10/22 04:22:05;;;;;;;33.83;24.80;;;12.00;99.90;;;;;;5088901;28;20426;-45
2022/10/22 04:24:31;;;;;;;35.43;25.77;;;12.00;99.90;;;;;;5088283;28;20200;-48
2022/10/22 04:26:57;;;;;;;33.67;25.30;;;12.00;99.90;;;;;;5089910;28;20287;-47
2022/10/22 04:29:23;;;;;;;32.70;26.47;;;12.00;99.90;;;;;;5088897;28;20238;-45
2022/10/22 04:31:49;;;;;;;35.67;27.03;;;12.10;99.90;;;;;;5088921;28;20539;-45
2022/10/22 04:34:14;;;;;;;35.43;26.37;;;12.00;99.90;;;;;;5089671;28;20423;-46
2022/10/22 04:36:40;;;;;;;38.23;27.80;;;11.90;99.90;;;;;;5088847;28;20192;-45
2022/10/22 04:39:05;;;;;;;35.47;26.47;;;11.90;99.90;;;;;;5089785;28;20623;-47
2022/10/22 04:41:34;;;;;;;38.57;28.50;;;11.90;99.90;;;;;;5088242;28;20279;-46
2022/10/22 04:44:00;;;;;;;33.40;26.07;;;12.00;99.90;;;;;;5089431;28;20197;-42
2022/10/22 04:46:29;;;;;;;35.13;26.97;;;12.00;99.90;;;;;;5088970;28;20449;-47
2022/10/22 04:48:54;;;;;;;35.50;26.13;;;12.00;99.90;;;;;;5089547;28;20466;-45
2022/10/22 04:51:22;;;;;;;34.70;26.50;;;12.10;99.90;;;;;;5085840;28;20449;-44
2022/10/22 04:53:47;;;;;;;33.50;26.43;;;12.10;99.90;;;;;;5083590;28;20195;-42
2022/10/22 04:56:23;;;;;;;32.90;25.30;;;12.10;99.90;;;;;;5088400;28;20423;-46
2022/10/22 04:58:55;;;;;;;30.33;23.43;;;12.10;99.90;;;;;;5070776;28;20200;-45
2022/10/22 05:01:22;;;;;;;31.63;25.20;;;12.20;99.90;;;;;;5087887;28;20446;-44
2022/10/22 05:03:51;;;;;;;34.00;25.37;;;12.10;99.90;;;;;;5089122;28;20776;-45
2022/10/22 05:06:19;;;;;;;36.27;25.17;;;12.10;99.90;;;;;;5087509;28;20465;-44
2022/10/22 05:08:45;;;;;;;32.93;24.43;;;12.00;99.90;;;;;;5088955;28;20462;-44
2022/10/22 05:11:19;;;;;;;33.90;25.50;;;12.00;99.90;;;;;;5088265;28;20446;-45
2022/10/22 05:13:45;;;;;;;29.43;22.50;;;12.00;99.90;;;;;;5088288;28;20573;-47
2022/10/22 05:16:12;;;;;;;33.10;24.57;;;12.00;99.90;;;;;;5088855;28;20739;-48
2022/10/22 05:18:40;;;;;;;31.73;23.43;;;12.10;99.90;;;;;;5087252;28;20434;-42
2022/10/22 05:21:13;;;;;;;32.93;24.13;;;12.10;99.90;;;;;;5087140;28;20470;-45
2022/10/22 05:23:39;;;;;;;34.40;23.37;;;12.00;99.90;;;;;;5088151;28;20925;-43
2022/10/22 05:26:06;;;;;;;32.40;24.53;;;12.10;99.90;;;;;;5087444;28;20446;-44
2022/10/22 05:28:33;;;;;;;35.40;26.50;;;12.10;99.90;;;;;;5070640;28;20212;-44
2022/10/22 05:30:59;;;;;;;31.50;24.27;;;12.10;99.90;;;;;;5087931;28;20791;-43
2022/10/22 05:33:25;;;;;;;30.60;24.53;;;12.00;99.90;;;;;;5087323;28;20438;-42
2022/10/22 05:35:52;;;;;;;29.73;25.00;;;12.00;99.90;;;;;;5087935;28;20438;-42
2022/10/22 05:38:17;;;;;;;33.17;24.90;;;12.00;99.90;;;;;;5086987;28;20454;-44
2022/10/22 05:40:43;;;;;;;30.50;23.93;;;12.00;99.90;;;;;;5069324;28;20430;-47
2022/10/22 05:43:09;;;;;;;30.00;23.50;;;11.90;99.90;;;;;;5088131;28;20195;-46
2022/10/22 05:45:41;;;;;;;32.57;25.40;;;12.00;99.90;;;;;;5088007;28;20200;-43
2022/10/22 05:48:08;;;;;;;32.20;24.57;;;12.00;99.90;;;;;;5084562;28;20237;-44
2022/10/22 05:50:37;;;;;;;31.67;23.03;;;12.00;99.90;;;;;;5085373;28;20465;-43
2022/10/22 05:53:04;;;;;;;31.87;24.60;;;12.00;99.90;;;;;;5086211;28;20475;-47
2022/10/22 05:55:35;;;;;;;30.83;22.90;;;12.00;99.90;;;;;;5084371;28;20801;-46
2022/10/22 05:58:02;;;;;;;31.43;23.33;;;12.00;99.90;;;;;;5086480;28;20438;-46
2022/10/22 06:00:27;;;;;;;31.03;23.67;;;12.00;99.90;;;;;;5090753;28;20438;-43
2022/10/22 06:02:53;;;;;;;32.20;23.57;;;12.00;99.90;;;;;;5092163;28;20511;-44
2022/10/22 06:05:19;;;;;;;32.30;23.07;;;12.00;99.90;;;;;;5091589;28;20184;-49
2022/10/22 06:07:44;;;;;;;34.13;24.47;;;12.00;99.90;;;;;;5092242;28;20215;-45
2022/10/22 06:10:15;;;;;;;30.30;23.00;;;12.10;99.90;;;;;;5091643;28;20193;-44
2022/10/22 06:12:41;;;;;;;31.47;25.50;;;12.10;99.90;;;;;;5092527;28;20954;-46
2022/10/22 06:15:08;;;;;;;31.37;23.97;;;12.10;99.90;;;;;;5089986;28;20518;-47
2022/10/22 06:17:33;;;;;;;33.53;24.60;;;12.10;99.90;;;;;;5084552;28;20193;-46
2022/10/22 06:19:59;;;;;;;28.77;22.77;;;12.20;99.90;;;;;;5091373;28;20439;-49
2022/10/22 06:22:25;;;;;;;31.13;24.17;;;12.20;99.90;;;;;;5089929;28;20941;-47
2022/10/22 06:24:51;;;;;;;33.60;23.87;;;12.20;99.90;;;;;;5061781;28;20697;-49
2022/10/22 06:27:16;;;;;;;29.77;23.67;;;12.20;99.90;;;;;;5089518;28;20184;-47
2022/10/22 06:29:42;;;;;;;30.57;23.03;;;12.20;99.90;;;;;;5088582;28;20782;-46
2022/10/22 06:32:08;;;;;;;28.83;22.10;;;12.20;99.90;;;;;;5091487;28;20192;-49
2022/10/22 06:34:33;;;;;;;27.77;23.07;;;12.20;99.90;;;;;;5088071;28;20188;-49
2022/10/22 06:36:59;;;;;;;29.20;23.43;;;12.20;99.90;;;;;;5090807;28;20674;-46
2022/10/22 06:39:24;;;;;;;28.03;23.50;;;12.20;99.90;;;;;;5092062;28;20188;-49
2022/10/22 06:41:50;;;;;;;28.20;23.00;;;12.30;99.90;;;;;;5090917;28;20193;-46
2022/10/22 06:44:17;;;;;;;30.00;24.00;;;12.30;99.90;;;;;;5088920;28;20258;-48
2022/10/22 06:46:43;;;;;;;32.10;23.80;;;12.30;99.90;;;;;;5089174;28;20185;-46
2022/10/22 06:49:13;;;;;;;29.77;24.10;;;12.20;99.90;;;;;;5089692;28;20563;-45
2022/10/22 06:51:38;;;;;;;26.40;22.77;;;12.20;99.90;;;;;;5088168;28;20202;-44
2022/10/22 06:54:04;;;;;;;28.40;23.20;;;12.20;99.90;;;;;;5082985;28;20681;-47
2022/10/22 06:56:30;;;;;;;31.10;25.03;;;12.20;99.90;;;;;;5090081;28;20192;-46
2022/10/22 06:58:57;;;;;;;32.83;24.07;;;12.20;99.90;;;;;;5091482;28;20197;-49
2022/10/22 07:01:25;;;;;;;28.83;22.77;;;12.20;99.90;;;;;;5091176;28;20195;-48
2022/10/22 07:03:51;;;;;;;32.20;24.10;;;12.20;99.90;;;;;;5091378;28;20476;-47
2022/10/22 07:06:18;;;;;;;29.20;23.93;;;12.20;99.90;;;;;;5089934;28;20493;-45
2022/10/22 07:08:44;;;;;;;27.60;22.07;;;12.20;99.90;;;;;;5091224;28;21034;-50
2022/10/22 07:11:12;;;;;;;31.03;24.27;;;12.20;99.90;;;;;;5091146;28;20501;-49
2022/10/22 07:13:38;;;;;;;29.00;23.00;;;12.20;99.90;;;;;;5091325;28;20180;-44
2022/10/22 07:16:05;;;;;;;32.30;24.30;;;12.10;99.90;;;;;;5091124;28;20422;-45
2022/10/22 07:18:31;;;;;;;32.70;23.40;;;12.10;99.90;;;;;;5090890;28;20257;-45
2022/10/22 07:20:57;;;;;;;29.53;23.40;;;12.10;99.90;;;;;;5090231;28;20446;-46
2022/10/22 07:23:22;;;;;;;30.07;23.50;;;12.00;99.90;;;;;;5086096;28;20519;-47
2022/10/22 07:25:48;;;;;;;32.77;24.63;;;12.10;99.90;;;;;;5091001;28;20671;-45
2022/10/22 07:28:13;;;;;;;31.93;24.27;;;12.20;99.90;;;;;;5090757;28;20701;-46
2022/10/22 07:30:40;;;;;;;30.13;22.50;;;12.20;99.90;;;;;;5090946;28;20200;-49
2022/10/22 07:33:06;;;;;;;31.60;23.10;;;12.20;99.90;;;;;;5090752;28;20246;-45
2022/10/22 07:35:33;;;;;;;31.90;23.27;;;12.20;99.90;;;;;;5090881;28;20910;-44
2022/10/22 07:37:59;;;;;;;30.27;23.00;;;12.30;99.90;;;;;;5072534;28;20211;-45
2022/10/22 07:40:24;;;;;;;27.27;21.83;;;12.30;99.90;;;;;;5091038;28;20810;-43
2022/10/22 07:42:50;;;;;;;29.17;20.90;;;12.30;99.90;;;;;;5091095;28;20422;-44
2022/10/22 07:45:16;;;;;;;35.57;24.17;;;12.40;99.90;;;;;;5089014;28;20200;-48
2022/10/22 07:47:42;;;;;;;26.90;22.37;;;12.40;99.90;;;;;;5090324;28;20552;-47
2022/10/22 07:50:08;;;;;;;30.30;23.83;;;12.40;99.90;;;;;;5090560;28;20191;-46
2022/10/22 07:52:34;;;;;;;30.87;23.43;;;12.00;99.90;;;;;;5090476;28;20412;-45
2022/10/22 07:54:59;;;;;;;30.73;24.37;;;11.90;99.90;;;;;;5090448;28;20930;-46
2022/10/22 07:57:25;;;;;;;34.90;26.67;;;11.80;99.90;;;;;;5090290;28;20184;-48
2022/10/22 07:59:50;;;;;;;31.97;24.43;;;11.70;99.90;;;;;;5090454;28;20666;-45
2022/10/22 08:02:16;;;;;;;35.97;26.63;;;11.60;99.90;;;;;;5090139;28;20661;-50
2022/10/22 08:04:41;;;;;;;35.50;26.40;;;11.50;99.90;;;;;;5090498;28;20200;-45
2022/10/22 08:07:07;;;;;;;35.57;25.60;;;11.50;99.90;;;;;;5090053;28;20235;-49
2022/10/22 08:09:33;;;;;;;34.93;27.33;;;11.50;99.90;;;;;;5090246;28;20212;-47
2022/10/22 08:11:58;;;;;;;37.03;27.73;;;11.50;99.90;;;;;;5089029;28;20546;-46
2022/10/22 08:14:24;;;;;;;33.70;26.53;;;11.50;99.90;;;;;;5079340;28;20216;-48
2022/10/22 08:16:50;;;;;;;34.70;27.37;;;11.50;99.90;;;;;;5084192;28;20280;-48
2022/10/22 08:19:20;;;;;;;36.37;27.87;;;11.60;99.90;;;;;;5090259;28;20555;-47
2022/10/22 08:21:46;;;;;;;36.40;27.13;;;11.70;99.90;;;;;;5089966;28;20734;-48
2022/10/22 08:24:12;;;;;;;32.97;26.40;;;11.70;99.90;;;;;;5090291;28;20418;-46
2022/10/22 08:26:38;;;;;;;37.67;27.17;;;11.80;99.90;;;;;;5089956;28;20450;-48
2022/10/22 08:29:04;;;;;;;35.77;27.53;;;11.90;99.90;;;;;;5089987;28;20466;-50
2022/10/22 08:31:29;;;;;;;35.77;27.60;;;11.90;99.90;;;;;;5089728;28;20185;-51
2022/10/22 08:33:55;;;;;;;35.90;25.87;;;12.00;99.90;;;;;;5089992;28;20221;-50
2022/10/22 08:36:20;;;;;;;37.50;25.97;;;12.00;99.90;;;;;;5089601;28;20185;-53
2022/10/22 08:38:46;;;;;;;33.30;25.07;;;12.10;99.90;;;;;;5089938;28;20228;-50
2022/10/22 08:41:16;;;;;;;30.50;23.97;;;12.30;99.90;;;;;;5088568;28;20192;-53
2022/10/22 08:43:47;;;;;;;35.77;25.13;;;12.30;99.90;;;;;;5089500;28;20194;-50
2022/10/22 08:46:12;;;;;;;34.93;25.57;;;12.40;99.90;;;;;;5089932;28;20430;-51
2022/10/22 08:48:51;;;;;;;35.93;26.50;;;12.40;99.90;;;;;;5090016;28;20450;-48
2022/10/22 08:51:27;;;;;;;35.83;27.37;;;12.30;99.90;;;;;;5089200;28;20221;-49
2022/10/22 08:54:27;;;;;;;35.30;28.40;;;12.30;99.90;;;;;;5089543;28;20425;-47
2022/10/22 08:57:18;;;;;;;37.33;27.17;;;12.40;99.90;;;;;;5080066;28;20418;-51
2022/10/22 08:59:56;;;;;;;35.20;26.17;;;12.40;99.90;;;;;;5061923;28;20435;-51
2022/10/22 09:02:29;;;;;;;35.03;26.60;;;12.50;99.90;;;;;;5089085;28;20418;-49
2022/10/22 09:05:32;;;;;;;38.13;28.10;;;12.50;99.90;;;;;;5070902;28;20481;-51
2022/10/22 09:07:57;;;;;;;32.80;26.27;;;12.60;99.90;;;;;;5041987;28;20532;-51
2022/10/22 09:10:31;;;;;;;34.40;26.57;;;12.70;99.90;;;;;;5048716;28;20826;-51
2022/10/22 09:12:57;;;;;;;29.23;25.00;;;12.90;99.90;;;;;;5048852;28;20218;-50
2022/10/22 09:15:23;;;;;;;31.17;24.40;;;13.00;99.90;;;;;;5048632;28;20429;-48
2022/10/22 09:18:20;;;;;;;31.60;24.87;;;13.00;99.90;;;;;;5048711;28;20634;-51
2022/10/22 09:20:55;;;;;;;34.13;25.33;;;13.00;99.90;;;;;;5038874;28;20188;-49
2022/10/22 09:23:53;;;;;;;30.63;25.27;;;13.00;99.90;;;;;;5046761;28;20460;-53
2022/10/22 09:26:19;;;;;;;28.83;23.97;;;13.00;99.90;;;;;;5044543;28;20457;-52
2022/10/22 09:28:49;;;;;;;27.83;24.87;;;13.10;99.90;;;;;;5044672;28;20482;-48
2022/10/22 09:31:15;;;;;;;31.53;24.77;;;13.00;99.90;;;;;;5045802;28;20694;-51
2022/10/22 09:33:43;;;;;;;31.93;25.03;;;13.00;99.90;;;;;;5047624;28;20436;-52
2022/10/22 09:36:15;;;;;;;31.43;24.80;;;13.00;99.90;;;;;;5047337;28;20214;-49
2022/10/22 09:38:46;;;;;;;27.07;24.23;;;13.10;99.90;;;;;;5047530;28;20444;-50
2022/10/22 09:41:12;;;;;;;28.93;24.57;;;13.20;99.90;;;;;;5042684;28;20451;-50
2022/10/22 09:43:38;;;;;;;26.20;22.90;;;13.30;99.90;;;;;;5038474;28;20432;-50
2022/10/22 09:46:07;;;;;;;29.50;25.13;;;13.30;99.90;;;;;;5039046;28;20489;-50
2022/10/22 09:48:41;;;;;;;26.80;22.40;;;13.50;99.90;;;;;;5036974;28;20222;-49
2022/10/22 09:51:21;;;;;;;26.07;22.50;;;13.50;99.90;;;;;;5027271;28;20496;-51
2022/10/22 09:53:56;;;;;;;25.13;21.83;;;13.60;99.90;;;;;;5038028;28;20447;-51
2022/10/22 09:56:34;;;;;;;26.13;22.40;;;13.80;99.90;;;;;;5037310;28;20431;-48
2022/10/22 09:59:01;;;;;;;25.27;22.50;;;14.10;99.90;;;;;;5037531;28;20448;-46
2022/10/22 10:01:37;;;;;;;22.30;19.90;;;14.20;99.90;;;;;;5031932;28;20482;-53
2022/10/22 10:04:05;;;;;;;23.17;19.90;;;14.50;99.90;;;;;;5037622;28;20440;-50
2022/10/22 10:06:32;;;;;;;19.70;17.60;;;14.70;99.90;;;;;;5059772;28;20496;-50
2022/10/22 10:09:04;;;;;;;21.30;17.83;;;14.70;99.90;;;;;;5077398;28;20527;-47
2022/10/22 10:11:47;;;;;;;19.40;17.40;;;14.60;99.90;;;;;;5077168;28;21333;-48
2022/10/22 10:14:58;;;;;;;19.67;17.80;;;14.90;99.90;;;;;;5077884;28;20438;-53
2022/10/22 10:17:36;;;;;;;19.07;16.90;;;15.10;99.90;;;;;;5077917;28;20450;-48
2022/10/22 10:20:33;;;;;;;16.40;14.73;;;15.30;99.90;;;;;;5077195;28;20471;-49
2022/10/22 10:23:08;;;;;;;15.40;13.90;;;15.80;99.90;;;;;;5076244;28;20922;-50
2022/10/22 10:25:57;;;;;;;14.53;13.13;;;16.20;99.90;;;;;;5059203;28;21010;-51
2022/10/22 10:28:34;;;;;;;16.40;14.70;;;16.40;99.90;;;;;;5077736;28;20522;-49
2022/10/22 10:31:08;;;;;;;16.23;14.63;;;16.10;99.90;;;;;;5076930;28;20442;-51
2022/10/22 10:33:54;;;;;;;16.00;14.40;;;16.20;99.90;;;;;;5077936;28;20422;-50
2022/10/22 10:36:47;;;;;;;14.87;13.37;;;16.30;99.90;;;;;;5077138;28;20503;-50
2022/10/22 10:39:39;;;;;;;13.60;12.30;;;15.90;99.90;;;;;;5079473;28;20429;-49
2022/10/22 10:42:21;;;;;;;14.37;12.57;;;16.00;99.90;;;;;;5050164;28;20445;-49
2022/10/22 10:45:14;;;;;;;14.10;12.30;;;16.20;99.90;;;;;;5081799;28;20993;-52
2022/10/22 10:47:55;;;;;;;13.50;12.20;;;16.50;99.90;;;;;;5080928;28;20964;-47
2022/10/22 10:50:28;;;;;;;12.40;11.20;;;17.20;99.90;;;;;;5079133;28;20430;-50
2022/10/22 10:53:24;;;;;;;11.87;10.83;;;17.90;99.90;;;;;;5079986;28;20517;-48
2022/10/22 10:56:07;;;;;;;11.70;10.50;;;19.10;99.90;;;;;;5080160;28;20505;-49
2022/10/22 10:58:58;;;;;;;10.93;10.03;;;20.40;99.90;;;;;;5077263;28;20952;-48
2022/10/22 11:01:47;;;;;;;10.50;9.60;;;20.80;99.90;;;;;;5078166;28;20458;-48
2022/10/22 11:04:42;;;;;;;11.90;9.90;;;20.90;99.90;;;;;;5066587;28;21048;-53
2022/10/22 11:07:14;;;;;;;10.57;9.60;;;20.70;99.90;;;;;;5079776;28;20848;-50
2022/10/22 11:09:58;;;;;;;10.83;9.83;;;21.30;99.90;;;;;;5082187;28;20599;-51
2022/10/22 11:12:30;;;;;;;9.83;8.93;;;21.40;99.90;;;;;;5081558;28;20685;-49
2022/10/22 11:15:25;;;;;;;10.33;9.50;;;21.90;99.90;;;;;;5089442;28;20422;-48
2022/10/22 11:17:54;;;;;;;10.00;9.10;;;22.10;99.90;;;;;;5085715;28;20471;-51
2022/10/22 11:20:45;;;;;;;9.13;8.43;;;22.20;99.90;;;;;;5082099;28;20438;-52
2022/10/22 11:23:15;;;;;;;10.97;8.47;;;22.30;99.90;;;;;;5081643;28;20403;-51
2022/10/22 11:25:47;;;;;;;10.93;10.13;;;22.10;99.90;;;;;;5089005;28;20422;-52
2022/10/22 11:28:26;;;;;;;8.93;8.23;;;21.70;99.90;;;;;;5090383;28;20562;-50
2022/10/22 11:31:01;;;;;;;9.67;8.97;;;21.60;99.90;;;;;;5089511;28;20488;-52
2022/10/22 11:33:49;;;;;;;8.90;8.30;;;20.80;99.90;;;;;;5081943;28;20426;-49
2022/10/22 11:36:17;;;;;;;9.17;8.37;;;20.20;99.90;;;;;;5082261;28;20466;-51
2022/10/22 11:38:43;;;;;;;10.20;9.20;;;19.60;99.90;;;;;;5084103;28;20472;-54
2022/10/22 11:41:31;;;;;;;11.90;10.30;;;19.20;99.90;;;;;;5081252;28;20442;-55
2022/10/22 11:44:15;;;;;;;10.63;9.30;;;18.80;99.90;;;;;;5081815;28;20472;-52
2022/10/22 11:46:52;;;;;;;10.27;9.37;;;18.30;99.90;;;;;;5086853;28;20438;-52
2022/10/22 11:49:23;;;;;;;11.37;10.37;;;17.40;99.90;;;;;;5081715;28;20882;-48
2022/10/22 11:51:49;;;;;;;12.93;11.63;;;17.00;99.90;;;;;;5084231;28;20928;-49
2022/10/22 11:54:41;;;;;;;12.90;11.10;;;16.60;99.90;;;;;;5086761;28;20473;-53
2022/10/22 11:57:15;;;;;;;12.27;11.13;;;16.40;99.90;;;;;;5088339;28;20817;-51
2022/10/22 11:59:50;;;;;;;13.70;12.40;;;16.40;99.90;;;;;;5089175;28;20977;-50
2022/10/22 12:02:40;;;;;;;14.07;12.77;;;16.20;99.90;;;;;;5088412;28;20448;-53
2022/10/22 12:05:23;;;;;;;15.53;13.00;;;16.20;99.90;;;;;;5088151;28;20437;-50
2022/10/22 12:08:00;;;;;;;15.33;13.83;;;16.30;99.90;;;;;;5089064;28;20514;-48
2022/10/22 12:10:48;;;;;;;14.10;12.80;;;16.40;99.90;;;;;;5090053;28;20437;-53
2022/10/22 12:13:26;;;;;;;13.10;11.90;;;16.40;99.90;;;;;;5088925;28;20441;-48
2022/10/22 12:15:56;;;;;;;12.50;11.40;;;16.30;99.90;;;;;;5088304;28;20429;-51
2022/10/22 12:18:26;;;;;;;12.13;10.90;;;16.30;99.90;;;;;;5085824;28;20494;-52
2022/10/22 12:20:52;;;;;;;12.83;11.63;;;16.30;99.90;;;;;;5087272;28;20981;-51
2022/10/22 12:23:23;;;;;;;13.43;12.17;;;16.40;99.90;;;;;;5087628;28;20449;-50
2022/10/22 12:25:48;;;;;;;12.37;11.27;;;16.50;99.90;;;;;;5087181;28;20827;-49
2022/10/22 12:28:15;;;;;;;11.80;10.70;;;16.70;99.90;;;;;;5087149;28;20465;-51
2022/10/22 12:30:40;;;;;;;13.10;11.80;;;16.90;99.90;;;;;;5088313;28;20614;-52
2022/10/22 12:33:17;;;;;;;11.90;10.80;;;17.30;99.90;;;;;;5070289;28;20530;-51
2022/10/22 12:35:45;;;;;;;11.53;10.43;;;17.70;99.90;;;;;;5088660;28;20195;-50
2022/10/22 12:38:22;;;;;;;10.77;9.57;;;18.20;99.90;;;;;;5089638;28;20414;-51
2022/10/22 12:40:49;;;;;;;10.77;9.87;;;18.80;99.90;;;;;;5088490;28;20426;-54
2022/10/22 12:43:18;;;;;;;9.37;8.57;;;19.50;99.90;;;;;;5089648;28;20424;-51
2022/10/22 12:45:46;;;;;;;8.50;7.70;;;20.10;99.90;;;;;;5088527;28;20453;-49
2022/10/22 12:48:20;;;;;;;8.67;7.87;;;20.60;99.90;;;;;;5087484;28;20499;-51